createdAt,value
2018-10-21T00:02:04.739Z,100282.62
2018-10-21T00:04:33.670Z,100285.34
2018-10-21T00:07:02.674Z,100285.86
2018-10-21T00:09:31.607Z,100286.56
2018-10-21T00:12:00.533Z,100282.03
2018-10-21T00:14:29.487Z,100284.39
2018-10-21T00:16:58.424Z,100287.77
2018-10-21T00:19:27.470Z,100286.73
2018-10-21T00:21:56.411Z,100285.23
2018-10-21T00:24:25.429Z,100282.41
2018-10-21T00:26:54.402Z,100286.12
2018-10-21T00:29:23.370Z,100287.69
2018-10-21T00:31:52.343Z,100279.05
2018-10-21T00:34:21.276Z,100276.02
2018-10-21T00:36:50.323Z,100274.80
2018-10-21T00:39:19.278Z,100269.55
2018-10-21T00:41:48.287Z,100268.32
2018-10-21T00:44:17.209Z,100268.94
2018-10-21T00:46:46.149Z,100271.45
2018-10-21T00:49:15.119Z,100263.30
2018-10-21T00:51:44.085Z,100260.86
2018-10-21T00:54:16.892Z,100261.80
2018-10-21T00:56:46.976Z,100254.98
2018-10-21T00:59:16.072Z,100247.89
2018-10-21T01:01:45.014Z,100254.22
2018-10-21T01:04:14.018Z,100246.95
2018-10-21T01:06:42.938Z,100248.39
2018-10-21T01:09:13.527Z,100246.69
2018-10-21T01:11:43.274Z,100250.05
2018-10-21T01:14:12.233Z,100252.86
2018-10-21T01:16:41.269Z,100248.30
2018-10-21T01:19:10.218Z,100248.97
2018-10-21T01:21:39.162Z,100252.36
2018-10-21T01:24:08.255Z,100251.52
2018-10-21T01:26:37.197Z,100252.69
2018-10-21T01:29:06.151Z,100252.69
2018-10-21T01:31:35.121Z,100252.86
2018-10-21T01:34:04.146Z,100255.44
2018-10-21T01:36:33.233Z,100257.15
2018-10-21T01:39:02.069Z,100258.34
2018-10-21T01:41:31.049Z,100263.64
2018-10-21T01:43:59.978Z,100267.54
2018-10-21T01:46:28.930Z,100261.63
2018-10-21T01:48:57.873Z,100254.55
2018-10-21T01:51:26.883Z,100252.55
2018-10-21T01:53:55.823Z,100253.52
2018-10-21T01:56:24.762Z,100260.20
2018-10-21T01:58:53.718Z,100258.50
2018-10-21T02:01:22.679Z,100260.20
2018-10-21T02:03:51.626Z,100254.86
2018-10-21T02:06:20.578Z,100249.64
2018-10-21T02:08:49.579Z,100242.39
2018-10-21T02:11:18.502Z,100240.35
2018-10-21T02:13:47.478Z,100246.38
2018-10-21T02:16:16.425Z,100244.02
2018-10-21T02:18:45.372Z,100249.41
2018-10-21T02:21:14.468Z,100253.25
2018-10-21T02:23:43.351Z,100249.33
2018-10-21T02:26:12.301Z,100247.64
2018-10-21T02:28:41.255Z,100249.33
2018-10-21T02:31:10.194Z,100255.74
2018-10-21T02:33:39.271Z,100252.77
2018-10-21T02:36:08.096Z,100255.14
2018-10-21T02:38:37.091Z,100250.42
2018-10-21T02:41:32.242Z,100245.09
2018-10-21T02:44:01.290Z,100250.16
2018-10-21T02:46:30.630Z,100244.75
2018-10-21T02:49:00.353Z,100251.83
2018-10-21T02:51:30.210Z,100250.30
2018-10-21T02:53:59.135Z,100251.45
2018-10-21T02:56:28.091Z,100251.27
2018-10-21T02:58:57.031Z,100250.42
2018-10-21T03:01:26.055Z,100252.95
2018-10-21T03:03:55.027Z,100250.07
2018-10-21T03:06:23.971Z,100244.31
2018-10-21T03:08:52.910Z,100238.53
2018-10-21T03:11:21.899Z,100242.22
2018-10-21T03:13:50.917Z,100242.55
2018-10-21T03:16:19.863Z,100244.26
2018-10-21T03:18:48.794Z,100243.59
2018-10-21T03:21:17.829Z,100250.05
2018-10-21T03:23:46.701Z,100252.08
2018-10-21T03:26:15.654Z,100251.91
2018-10-21T03:28:44.601Z,100249.72
2018-10-21T03:31:13.551Z,100251.09
2018-10-21T03:33:42.590Z,100249.29
2018-10-21T03:36:11.556Z,100250.09
2018-10-21T03:38:40.526Z,100248.90
2018-10-21T03:41:09.470Z,100244.67
2018-10-21T03:43:38.409Z,100241.97
2018-10-21T03:46:07.383Z,100246.53
2018-10-21T03:48:36.343Z,100242.66
2018-10-21T03:51:05.325Z,100238.77
2018-10-21T03:53:34.246Z,100242.97
2018-10-21T03:56:03.269Z,100237.56
2018-10-21T03:58:32.199Z,100233.52
2018-10-21T04:01:01.129Z,100231.78
2018-10-21T04:03:30.068Z,100231.09
2018-10-21T04:05:58.994Z,100231.42
2018-10-21T04:08:27.948Z,100231.06
2018-10-21T04:10:56.881Z,100234.36
2018-10-21T04:13:25.893Z,100236.31
2018-10-21T04:15:54.887Z,100239.34
2018-10-21T04:18:23.822Z,100231.90
2018-10-21T04:20:52.774Z,100230.16
2018-10-21T04:23:21.730Z,100221.69
2018-10-21T04:25:50.686Z,100228.62
2018-10-21T04:28:19.721Z,100226.73
2018-10-21T04:30:48.666Z,100229.80
2018-10-21T04:33:21.033Z,100228.27
2018-10-21T04:35:50.047Z,100229.52
2018-10-21T04:38:30.956Z,100228.34
2018-10-21T04:40:59.969Z,100238.72
2018-10-21T04:43:28.909Z,100242.01
2018-10-21T04:45:57.911Z,100244.53
2018-10-21T04:48:26.834Z,100235.72
2018-10-21T04:50:55.774Z,100239.41
2018-10-21T04:53:24.786Z,100236.70
2018-10-21T04:55:53.734Z,100236.42
2018-10-21T04:58:22.682Z,100235.84
2018-10-21T05:00:51.760Z,100234.84
2018-10-21T05:03:20.593Z,100235.94
2018-10-21T05:05:49.546Z,100241.86
2018-10-21T05:08:18.480Z,100244.73
2018-10-21T05:10:47.426Z,100247.80
2018-10-21T05:13:16.380Z,100246.45
2018-10-21T05:15:45.378Z,100242.73
2018-10-21T05:18:14.332Z,100244.73
2018-10-21T05:20:43.272Z,100253.17
2018-10-21T05:23:12.213Z,100255.69
2018-10-21T05:25:41.145Z,100255.27
2018-10-21T05:28:10.144Z,100259.06
2018-10-21T05:30:39.058Z,100253.44
2018-10-21T05:33:07.998Z,100261.61
2018-10-21T05:35:36.966Z,100256.25
2018-10-21T05:38:05.904Z,100261.50
2018-10-21T05:40:34.986Z,100260.66
2018-10-21T05:43:03.893Z,100263.40
2018-10-21T05:45:32.828Z,100260.30
2018-10-21T05:48:01.830Z,100264.67
2018-10-21T05:50:30.766Z,100259.45
2018-10-21T05:52:59.726Z,100265.67
2018-10-21T05:55:28.665Z,100268.92
2018-10-21T05:57:57.689Z,100275.13
2018-10-21T06:00:26.724Z,100266.77
2018-10-21T06:02:55.677Z,100269.91
2018-10-21T06:05:43.074Z,100273.35
2018-10-21T06:08:12.010Z,100268.61
2018-10-21T06:10:41.465Z,100277.41
2018-10-21T06:13:10.666Z,100282.47
2018-10-21T06:15:39.799Z,100270.92
2018-10-21T06:18:14.586Z,100280.83
2018-10-21T06:20:49.075Z,100278.36
2018-10-21T06:23:17.996Z,100283.88
2018-10-21T06:25:46.922Z,100283.09
2018-10-21T06:28:16.479Z,100283.55
2018-10-21T06:30:45.566Z,100283.16
2018-10-21T06:33:14.595Z,100282.33
2018-10-21T06:35:43.474Z,100276.39
2018-10-21T06:38:12.469Z,100275.88
2018-10-21T06:40:41.394Z,100270.56
2018-10-21T06:43:10.352Z,100277.47
2018-10-21T06:45:39.333Z,100276.55
2018-10-21T06:48:08.257Z,100278.95
2018-10-21T06:50:37.238Z,100279.16
2018-10-21T06:53:06.217Z,100270.52
2018-10-21T06:55:35.219Z,100273.03
2018-10-21T06:58:04.143Z,100272.42
2018-10-21T07:00:33.058Z,100268.14
2018-10-21T07:03:01.994Z,100275.56
2018-10-21T07:06:17.454Z,100279.23
2018-10-21T07:08:46.886Z,100285.05
2018-10-21T07:11:15.906Z,100284.33
2018-10-21T07:13:44.952Z,100286.41
2018-10-21T07:16:14.309Z,100288.97
2018-10-21T07:18:43.974Z,100286.46
2018-10-21T07:21:13.018Z,100294.60
2018-10-21T07:23:41.941Z,100291.89
2018-10-21T07:26:10.880Z,100282.06
2018-10-21T07:28:39.958Z,100281.43
2018-10-21T07:31:08.839Z,100279.27
2018-10-21T07:33:37.807Z,100278.83
2018-10-21T07:36:06.788Z,100285.17
2018-10-21T07:38:35.691Z,100284.98
2018-10-21T07:41:04.622Z,100283.30
2018-10-21T07:43:33.550Z,100278.23
2018-10-21T07:46:02.521Z,100275.83
2018-10-21T07:48:31.510Z,100276.23
2018-10-21T07:51:00.454Z,100273.98
2018-10-21T07:53:29.446Z,100271.39
2018-10-21T07:55:58.378Z,100269.83
2018-10-21T07:58:27.338Z,100272.53
2018-10-21T08:00:56.314Z,100277.96
2018-10-21T08:03:25.225Z,100272.97
2018-10-21T08:06:21.169Z,100272.09
2018-10-21T08:08:50.185Z,100271.27
2018-10-21T08:11:19.057Z,100272.52
2018-10-21T08:13:47.998Z,100266.02
2018-10-21T08:16:17.002Z,100273.21
2018-10-21T08:18:45.917Z,100269.32
2018-10-21T08:21:14.980Z,100270.89
2018-10-21T08:23:43.933Z,100280.61
2018-10-21T08:26:12.998Z,100278.31
2018-10-21T08:28:41.937Z,100277.66
2018-10-21T08:31:10.901Z,100278.32
2018-10-21T08:33:39.849Z,100277.21
2018-10-21T08:36:09.137Z,100276.41
2018-10-21T08:38:38.273Z,100278.59
2018-10-21T08:41:07.367Z,100286.51
2018-10-21T08:43:36.348Z,100282.36
2018-10-21T08:46:05.405Z,100275.70
2018-10-21T08:48:34.351Z,100277.72
2018-10-21T08:51:03.348Z,100279.34
2018-10-21T08:53:32.516Z,100274.23
2018-10-21T08:56:01.518Z,100274.67
2018-10-21T08:58:30.473Z,100269.56
2018-10-21T09:00:59.585Z,100277.81
2018-10-21T09:03:28.510Z,100272.09
2018-10-21T09:05:57.470Z,100273.76
2018-10-21T09:08:26.407Z,100275.27
2018-10-21T09:10:55.391Z,100280.84
2018-10-21T09:13:24.318Z,100279.62
2018-10-21T09:15:53.406Z,100279.91
2018-10-21T09:18:22.340Z,100276.31
2018-10-21T09:20:51.269Z,100278.44
2018-10-21T09:23:20.230Z,100274.76
2018-10-21T09:25:49.163Z,100274.18
2018-10-21T09:28:18.106Z,100269.26
2018-10-21T09:30:47.031Z,100274.79
2018-10-21T09:33:16.093Z,100269.36
2018-10-21T09:35:45.160Z,100267.98
2018-10-21T09:38:14.097Z,100266.48
2018-10-21T09:40:43.154Z,100272.74
2018-10-21T09:43:12.185Z,100257.94
2018-10-21T09:45:41.126Z,100263.07
2018-10-21T09:48:10.117Z,100254.94
2018-10-21T09:50:39.158Z,100261.78
2018-10-21T09:53:08.110Z,100263.35
2018-10-21T09:55:37.095Z,100261.70
2018-10-21T09:58:06.254Z,100259.02
2018-10-21T10:00:40.204Z,100257.48
2018-10-21T10:03:09.543Z,100250.65
2018-10-21T10:05:38.483Z,100254.75
2018-10-21T10:08:07.446Z,100249.95
2018-10-21T10:10:36.379Z,100252.31
2018-10-21T10:13:05.508Z,100251.38
2018-10-21T10:15:34.348Z,100251.49
2018-10-21T10:18:03.302Z,100245.96
2018-10-21T10:20:32.277Z,100243.61
2018-10-21T10:23:01.215Z,100244.89
2018-10-21T10:25:30.171Z,100245.40
2018-10-21T10:27:59.136Z,100237.73
2018-10-21T10:30:28.180Z,100237.20
2018-10-21T10:32:57.123Z,100235.28
2018-10-21T10:35:26.064Z,100231.41
2018-10-21T10:37:55.038Z,100230.34
2018-10-21T10:40:23.976Z,100229.53
2018-10-21T10:42:52.952Z,100236.50
2018-10-21T10:45:21.878Z,100238.91
2018-10-21T10:47:50.891Z,100237.14
2018-10-21T10:50:20.614Z,100230.94
2018-10-21T10:52:49.610Z,100222.33
2018-10-21T10:55:18.629Z,100215.06
2018-10-21T10:57:47.589Z,100196.49
2018-10-21T11:00:16.589Z,100217.52
2018-10-21T11:02:45.574Z,100217.73
2018-10-21T11:05:14.594Z,100218.38
2018-10-21T11:07:43.567Z,100224.54
2018-10-21T11:10:12.578Z,100222.80
2018-10-21T11:12:41.496Z,100215.19
2018-10-21T11:15:11.217Z,100220.17
2018-10-21T11:17:40.203Z,100214.72
2018-10-21T11:20:09.154Z,100211.77
2018-10-21T11:22:38.275Z,100213.84
2018-10-21T11:25:09.251Z,100209.52
2018-10-21T11:27:38.142Z,100212.83
2018-10-21T11:30:07.296Z,100213.70
2018-10-21T11:32:36.254Z,100212.52
2018-10-21T11:35:05.875Z,100204.43
2018-10-21T11:37:34.852Z,100207.75
2018-10-21T11:40:03.957Z,100214.07
2018-10-21T11:42:32.929Z,100210.68
2018-10-21T11:45:02.022Z,100211.68
2018-10-21T11:47:31.063Z,100215.31
2018-10-21T11:50:00.014Z,100221.77
2018-10-21T11:52:28.988Z,100217.01
2018-10-21T11:54:57.950Z,100218.75
2018-10-21T11:57:26.981Z,100215.91
2018-10-21T11:59:55.969Z,100220.66
2018-10-21T12:02:24.983Z,100221.77
2018-10-21T12:04:53.929Z,100222.09
2018-10-21T12:07:22.867Z,100218.55
2018-10-21T12:09:51.930Z,100220.42
2018-10-21T12:12:20.865Z,100214.84
2018-10-21T12:14:50.783Z,100213.02
2018-10-21T12:17:19.731Z,100216.60
2018-10-21T12:19:49.580Z,100214.25
2018-10-21T12:22:18.675Z,100217.26
2018-10-21T12:24:47.490Z,100213.66
2018-10-21T12:27:16.434Z,100215.38
2018-10-21T12:29:45.391Z,100217.05
2018-10-21T12:32:14.407Z,100214.22
2018-10-21T12:34:43.355Z,100219.02
2018-10-21T12:37:12.354Z,100217.13
2018-10-21T12:39:41.288Z,100212.81
2018-10-21T12:42:10.232Z,100214.28
2018-10-21T12:44:39.206Z,100222.46
2018-10-21T12:47:08.280Z,100222.01
2018-10-21T12:49:37.203Z,100214.52
2018-10-21T12:52:06.263Z,100230.92
2018-10-21T12:54:35.328Z,100223.67
2018-10-21T12:57:05.434Z,100226.11
2018-10-21T12:59:37.166Z,100229.06
2018-10-21T13:02:06.214Z,100231.95
2018-10-21T13:04:35.128Z,100235.09
2018-10-21T13:07:04.143Z,100234.98
2018-10-21T13:41:40.802Z,100235.38
2018-10-21T13:44:09.746Z,100232.48
2018-10-21T13:46:38.672Z,100235.97
2018-10-21T13:49:07.688Z,100232.66
2018-10-21T13:51:37.316Z,100232.28
2018-10-21T13:54:06.278Z,100231.97
2018-10-21T13:56:35.324Z,100233.03
2018-10-21T13:59:04.315Z,100231.92
2018-10-21T14:01:33.293Z,100228.28
2018-10-21T14:04:02.220Z,100226.38
2018-10-21T14:06:31.271Z,100228.72
2018-10-21T14:12:32.069Z,100228.39
2018-10-21T14:15:01.131Z,100229.37
2018-10-21T14:17:30.059Z,100223.28
2018-10-21T14:19:59.010Z,100241.53
2018-10-21T14:22:27.979Z,100243.80
2018-10-21T14:24:57.241Z,100244.18
2018-10-21T14:27:26.230Z,100250.45
2018-10-21T14:29:55.219Z,100249.97
2018-10-21T14:32:24.157Z,100256.17
2018-10-21T14:34:53.084Z,100251.79
2018-10-21T14:37:22.020Z,100257.78
2018-10-21T14:40:21.770Z,100261.37
2018-10-21T14:42:50.702Z,100262.00
2018-10-21T14:45:19.872Z,100263.70
2018-10-21T14:47:48.947Z,100264.73
2018-10-21T14:50:17.895Z,100268.00
2018-10-21T14:52:46.888Z,100270.85
2018-10-21T14:55:15.953Z,100275.02
2018-10-21T14:57:44.850Z,100273.77
2018-10-21T15:00:14.713Z,100285.80
2018-10-21T15:02:43.639Z,100281.95
2018-10-21T15:05:13.544Z,100279.12
2018-10-21T15:07:44.255Z,100284.34
2018-10-21T15:10:13.242Z,100289.26
2018-10-21T15:12:42.828Z,100293.66
2018-10-21T15:15:12.112Z,100297.18
2018-10-21T15:17:41.094Z,100297.18
2018-10-21T15:20:12.513Z,100301.89
2018-10-21T15:22:42.110Z,100304.70
2018-10-21T15:25:12.175Z,100302.58
2018-10-21T15:27:41.597Z,100305.30
2018-10-21T15:30:12.143Z,100306.54
2018-10-21T15:32:41.391Z,100303.70
2018-10-21T15:35:10.389Z,100308.81
2018-10-21T15:37:41.266Z,100310.93
2018-10-21T15:40:11.132Z,100311.53
2018-10-21T15:42:40.195Z,100317.43
2018-10-21T15:45:10.602Z,100324.66
2018-10-21T15:47:39.651Z,100318.27
2018-10-21T15:50:09.143Z,100322.95
2018-10-21T15:52:38.070Z,100325.55
2018-10-21T15:55:07.867Z,100328.34
2018-10-21T15:57:36.838Z,100332.41
2018-10-21T16:00:07.635Z,100338.27
2018-10-21T16:02:36.717Z,100343.91
2018-10-21T16:05:06.144Z,100339.08
2018-10-21T16:07:35.107Z,100342.42
2018-10-21T16:10:04.059Z,100348.25
2018-10-21T16:12:33.058Z,100347.59
2018-10-21T16:15:01.983Z,100351.12
2018-10-21T16:17:30.918Z,100357.45
2018-10-21T16:19:59.870Z,100361.59
2018-10-21T16:22:28.835Z,100366.05
2018-10-21T16:24:57.779Z,100366.55
2018-10-21T16:27:26.710Z,100369.97
2018-10-21T16:29:55.727Z,100381.24
2018-10-21T16:32:24.731Z,100376.02
2018-10-21T16:34:53.626Z,100382.34
2018-10-21T16:37:22.626Z,100381.70
2018-10-21T16:39:51.535Z,100386.09
2018-10-21T16:42:20.474Z,100384.64
2018-10-21T16:44:49.425Z,100388.64
2018-10-21T16:47:18.421Z,100394.16
2018-10-21T16:49:47.379Z,100397.91
2018-10-21T16:52:16.311Z,100398.23
2018-10-21T16:54:45.429Z,100401.98
2018-10-21T16:57:14.354Z,100397.91
2018-10-21T16:59:43.380Z,100394.88
2018-10-21T17:02:12.458Z,100394.16
2018-10-21T17:04:41.448Z,100394.68
2018-10-21T17:07:10.495Z,100391.00
2018-10-21T17:09:39.636Z,100396.91
2018-10-21T17:12:08.351Z,100395.42
2018-10-21T17:14:37.273Z,100401.64
2018-10-21T17:17:06.351Z,100400.96
2018-10-21T17:19:35.314Z,100401.02
2018-10-21T17:22:04.270Z,100401.24
2018-10-21T17:24:33.242Z,100402.38
2018-10-21T17:27:02.195Z,100406.95
2018-10-21T17:29:32.147Z,100406.77
2018-10-21T17:32:02.136Z,100414.57
2018-10-21T17:34:31.095Z,100413.02
2018-10-21T17:37:00.043Z,100410.13
2018-10-21T17:39:28.999Z,100412.83
2018-10-21T17:41:57.931Z,100419.61
2018-10-21T17:44:27.455Z,100424.84
2018-10-21T17:46:57.410Z,100421.99
2018-10-21T17:49:27.082Z,100430.13
2018-10-21T17:51:56.046Z,100427.09
2018-10-21T17:54:25.034Z,100427.83
2018-10-21T17:56:57.772Z,100429.89
2018-10-21T17:59:27.033Z,100431.11
2018-10-21T18:01:56.829Z,100427.62
2018-10-21T18:04:26.264Z,100430.55
2018-10-21T18:06:55.337Z,100435.45
2018-10-21T18:09:24.211Z,100437.98
2018-10-21T18:11:53.158Z,100431.38
2018-10-21T18:14:28.615Z,100440.01
2018-10-21T18:16:57.620Z,100443.53
2018-10-21T18:19:26.558Z,100446.55
2018-10-21T18:21:55.581Z,100442.27
2018-10-21T18:24:24.562Z,100441.55
2018-10-21T18:26:53.513Z,100450.76
2018-10-21T18:29:22.474Z,100449.81
2018-10-21T18:31:51.417Z,100450.87
2018-10-21T18:34:20.416Z,100451.63
2018-10-21T18:36:49.749Z,100446.44
2018-10-21T18:39:18.685Z,100452.27
2018-10-21T18:41:47.646Z,100450.33
2018-10-21T18:44:16.578Z,100457.95
2018-10-21T18:46:45.530Z,100455.17
2018-10-21T18:49:14.592Z,100459.64
2018-10-21T18:51:43.537Z,100461.20
2018-10-21T18:54:12.499Z,100463.64
2018-10-21T18:56:41.595Z,100463.72
2018-10-21T18:59:10.541Z,100470.17
2018-10-21T19:01:39.482Z,100473.61
2018-10-21T19:04:08.487Z,100477.86
2018-10-21T19:06:37.418Z,100480.80
2018-10-21T19:09:10.144Z,100480.18
2018-10-21T19:11:39.278Z,100480.73
2018-10-21T19:14:08.398Z,100487.37
2018-10-21T19:16:37.403Z,100496.88
2018-10-21T19:19:06.740Z,100490.81
2018-10-21T19:21:35.644Z,100496.72
2018-10-21T19:24:04.568Z,100500.91
2018-10-21T19:26:33.607Z,100503.81
2018-10-21T19:29:02.537Z,100501.20
2018-10-21T19:31:31.479Z,100506.53
2018-10-21T19:34:00.520Z,100507.13
2018-10-21T19:36:29.413Z,100513.16
2018-10-21T19:38:58.391Z,100521.25
2018-10-21T19:41:27.342Z,100522.20
2018-10-21T19:43:56.343Z,100526.05
2018-10-21T19:46:25.272Z,100528.53
2018-10-21T19:48:54.310Z,100532.56
2018-10-21T19:51:23.273Z,100530.80
2018-10-21T19:53:52.224Z,100534.17
2018-10-21T19:56:21.168Z,100534.67
2018-10-21T19:58:50.093Z,100537.38
2018-10-21T20:01:19.653Z,100543.75
2018-10-21T20:03:48.586Z,100544.23
2018-10-21T20:06:17.506Z,100545.23
2018-10-21T20:08:46.447Z,100547.25
2018-10-21T20:11:15.400Z,100550.31
2018-10-21T20:13:44.382Z,100551.84
2018-10-21T20:16:13.350Z,100554.36
2018-10-21T20:18:42.336Z,100558.70
2018-10-21T20:21:11.270Z,100558.67
2018-10-21T20:23:40.211Z,100569.77
2018-10-21T20:26:09.297Z,100568.39
2018-10-21T20:28:38.380Z,100568.99
2018-10-21T20:31:07.372Z,100568.30
2018-10-21T20:33:36.367Z,100573.53
2018-10-21T20:36:05.324Z,100568.91
2018-10-21T20:38:34.247Z,100567.86
2018-10-21T20:41:03.190Z,100568.87
2018-10-21T20:43:32.141Z,100571.22
2018-10-21T20:46:01.134Z,100567.50
2018-10-21T20:48:30.035Z,100563.11
2018-10-21T20:50:59.028Z,100562.72
2018-10-21T20:53:28.044Z,100568.52
2018-10-21T20:55:56.987Z,100576.13
2018-10-21T20:58:26.005Z,100564.79
2018-10-21T21:00:55.050Z,100572.52
2018-10-21T21:03:23.994Z,100575.05
2018-10-21T21:05:52.960Z,100568.39
2018-10-21T21:08:22.017Z,100566.92
2018-10-21T21:10:50.964Z,100573.48
2018-10-21T21:13:19.945Z,100571.07
2018-10-21T21:15:48.892Z,100576.97
2018-10-21T21:18:18.358Z,100577.14
2018-10-21T21:20:47.512Z,100576.13
2018-10-21T21:23:16.477Z,100582.92
2018-10-21T21:25:45.403Z,100588.36
2018-10-21T21:28:14.421Z,100584.03
2018-10-21T21:30:43.419Z,100588.90
2018-10-21T21:33:12.336Z,100588.14
2018-10-21T21:35:41.311Z,100592.83
2018-10-21T21:38:10.254Z,100588.44
2018-10-21T21:40:39.207Z,100591.80
2018-10-21T21:43:08.130Z,100591.41
2018-10-21T21:45:37.115Z,100593.09
2018-10-21T21:48:06.116Z,100592.06
2018-10-21T21:50:35.223Z,100591.38
2018-10-21T21:53:04.180Z,100600.84
2018-10-21T21:55:33.199Z,100599.34
2018-10-21T21:58:02.211Z,100606.30
2018-10-21T22:00:31.125Z,100598.06
2018-10-21T22:03:00.125Z,100605.70
2018-10-21T22:05:29.062Z,100604.71
2018-10-21T22:07:57.981Z,100607.09
2018-10-21T22:10:26.927Z,100613.80
2018-10-21T22:12:55.860Z,100613.68
2018-10-21T22:15:24.826Z,100615.36
2018-10-21T22:17:53.789Z,100618.70
2018-10-21T22:20:22.783Z,100613.34
2018-10-21T22:22:51.710Z,100610.82
2018-10-21T22:25:20.625Z,100612.17
2018-10-21T22:27:49.569Z,100615.21
2018-10-21T22:30:18.504Z,100616.08
2018-10-21T22:32:47.455Z,100616.08
2018-10-21T22:35:16.385Z,100618.52
2018-10-21T22:37:45.422Z,100619.35
2018-10-21T22:40:14.490Z,100617.84
2018-10-21T22:42:43.299Z,100618.91
2018-10-21T22:45:12.245Z,100623.31
2018-10-21T22:47:41.183Z,100619.92
2018-10-21T22:50:11.526Z,100621.97
2018-10-21T22:52:40.890Z,100618.95
2018-10-21T22:55:09.962Z,100618.95
2018-10-21T22:57:38.888Z,100614.59
2018-10-21T23:00:09.270Z,100614.77
2018-10-21T23:02:38.274Z,100619.01
2018-10-21T23:05:08.264Z,100612.60
2018-10-21T23:07:37.675Z,100623.58
2018-10-21T23:10:07.010Z,100622.91
2018-10-21T23:12:35.967Z,100623.93
2018-10-21T23:15:05.028Z,100622.41
2018-10-21T23:17:34.022Z,100624.95
2018-10-21T23:20:02.952Z,100623.14
2018-10-21T23:22:31.974Z,100614.01
2018-10-21T23:25:00.923Z,100626.81
2018-10-21T23:27:29.859Z,100620.05
2018-10-21T23:29:58.887Z,100621.73
2018-10-21T23:32:27.769Z,100618.85
2018-10-21T23:34:56.754Z,100625.46
2018-10-21T23:37:25.669Z,100626.71
2018-10-21T23:39:54.629Z,100622.48
2018-10-21T23:42:23.580Z,100624.16
2018-10-21T23:44:52.502Z,100625.69
2018-10-21T23:47:21.455Z,100624.84
2018-10-21T23:49:50.408Z,100625.87
2018-10-21T23:52:19.394Z,100621.81
2018-10-21T23:54:48.310Z,100626.89
2018-10-21T23:57:17.235Z,100618.27
2018-10-21T23:59:46.174Z,100622.66
